createdAt,value
2022-10-17T00:02:09.316Z,17.00
2022-10-17T00:04:40.732Z,16.00
2022-10-17T00:07:11.099Z,16.00
2022-10-17T00:09:43.423Z,16.00
2022-10-17T00:12:12.520Z,15.90
2022-10-17T00:14:42.070Z,15.90
2022-10-17T00:17:11.218Z,15.80
2022-10-17T00:19:43.585Z,15.80
2022-10-17T00:22:14.315Z,15.80
2022-10-17T00:24:43.283Z,15.70
2022-10-17T00:27:12.266Z,15.70
2022-10-17T00:29:41.750Z,15.70
2022-10-17T00:32:10.779Z,15.70
2022-10-17T00:34:39.798Z,15.70
2022-10-17T00:37:08.806Z,15.70
2022-10-17T00:39:39.577Z,15.60
2022-10-17T00:42:27.026Z,15.70
2022-10-17T00:45:11.668Z,15.60
2022-10-17T00:47:42.069Z,15.70
2022-10-17T00:50:13.655Z,15.60
2022-10-17T00:52:58.212Z,15.70
2022-10-17T00:55:32.217Z,15.60
2022-10-17T00:58:05.173Z,15.60
2022-10-17T01:00:34.458Z,15.50
2022-10-17T01:03:03.637Z,15.50
2022-10-17T01:05:48.198Z,15.50
2022-10-17T01:08:26.526Z,15.40
2022-10-17T01:11:08.615Z,15.40
2022-10-17T01:13:50.258Z,15.40
2022-10-17T01:16:26.874Z,15.40
2022-10-17T01:19:06.006Z,15.40
2022-10-17T01:21:47.419Z,15.40
2022-10-17T01:24:41.555Z,15.40
2022-10-17T01:27:50.584Z,15.90
2022-10-17T01:31:14.096Z,15.30
2022-10-17T01:33:52.519Z,15.30
2022-10-17T01:36:37.460Z,15.30
2022-10-17T01:39:16.303Z,15.30
2022-10-17T01:41:51.827Z,15.30
2022-10-17T01:44:28.306Z,15.30
2022-10-17T01:47:04.887Z,15.20
2022-10-17T01:49:37.106Z,15.10
2022-10-17T01:52:12.812Z,15.10
2022-10-17T01:55:07.646Z,15.10
2022-10-17T01:57:41.305Z,15.10
2022-10-17T02:00:16.686Z,15.10
2022-10-17T02:02:50.080Z,15.10
2022-10-17T02:05:23.088Z,15.00
2022-10-17T02:07:52.157Z,15.10
2022-10-17T02:10:33.605Z,15.00
2022-10-17T02:13:11.358Z,15.00
2022-10-17T02:15:56.104Z,15.00
2022-10-17T02:18:47.110Z,15.60
2022-10-17T02:21:25.782Z,14.90
2022-10-17T02:24:04.084Z,14.90
2022-10-17T02:26:42.564Z,14.90
2022-10-17T02:29:18.417Z,15.00
2022-10-17T02:31:51.231Z,14.90
2022-10-17T02:34:26.179Z,14.90
2022-10-17T02:36:59.611Z,14.90
2022-10-17T02:39:30.513Z,14.80
2022-10-17T02:42:04.684Z,14.80
2022-10-17T02:44:34.954Z,14.90
2022-10-17T02:47:12.753Z,14.90
2022-10-17T02:49:48.414Z,15.10
2022-10-17T02:52:23.840Z,14.80
2022-10-17T02:54:59.820Z,15.60
2022-10-17T02:57:35.407Z,14.80
2022-10-17T03:00:08.984Z,14.80
2022-10-17T03:02:44.059Z,14.70
2022-10-17T03:05:18.139Z,14.60
2022-10-17T03:07:47.411Z,14.60
2022-10-17T03:10:17.286Z,14.60
2022-10-17T03:13:08.047Z,14.60
2022-10-17T03:16:06.295Z,14.60
2022-10-17T03:18:35.702Z,14.60
2022-10-17T03:21:07.595Z,14.60
2022-10-17T03:23:36.715Z,14.60
2022-10-17T03:26:08.227Z,14.60
2022-10-17T03:28:38.493Z,14.50
2022-10-17T03:31:12.523Z,14.60
2022-10-17T03:33:41.554Z,14.50
2022-10-17T03:36:14.520Z,14.50
2022-10-17T03:38:44.865Z,14.50
2022-10-17T03:41:14.267Z,14.50
2022-10-17T03:43:43.826Z,14.50
2022-10-17T03:46:12.813Z,14.50
2022-10-17T03:48:42.065Z,14.50
2022-10-17T03:51:12.713Z,14.50
2022-10-17T03:53:46.975Z,14.50
2022-10-17T03:56:18.583Z,14.30
2022-10-17T03:58:56.818Z,14.30
2022-10-17T04:01:27.766Z,14.30
2022-10-17T04:03:59.016Z,14.40
2022-10-17T04:06:33.977Z,14.30
2022-10-17T04:09:04.625Z,14.30
2022-10-17T04:11:40.718Z,14.20
2022-10-17T04:14:12.300Z,14.20
2022-10-17T04:16:42.301Z,14.10
2022-10-17T04:19:17.337Z,14.20
2022-10-17T04:21:50.179Z,14.20
2022-10-17T04:24:19.887Z,14.30
2022-10-17T04:27:07.427Z,14.30
2022-10-17T04:29:40.217Z,14.30
2022-10-17T04:32:17.186Z,14.30
2022-10-17T04:34:50.937Z,14.30
2022-10-17T04:37:23.501Z,14.30
2022-10-17T04:39:54.827Z,14.30
2022-10-17T04:42:24.087Z,14.30
2022-10-17T04:44:55.599Z,14.30
2022-10-17T04:47:26.881Z,14.30
2022-10-17T04:49:57.321Z,14.30
2022-10-17T04:52:28.201Z,14.30
2022-10-17T04:54:57.850Z,14.30
2022-10-17T04:57:27.518Z,14.30
2022-10-17T05:00:14.607Z,14.20
2022-10-17T05:03:02.369Z,14.30
2022-10-17T05:05:32.521Z,14.30
2022-10-17T05:08:04.872Z,14.30
2022-10-17T05:10:38.587Z,14.20
2022-10-17T05:13:08.569Z,14.30
2022-10-17T05:15:39.520Z,14.30
2022-10-17T05:18:08.901Z,14.30
2022-10-17T05:20:39.790Z,14.30
2022-10-17T05:23:14.503Z,14.30
2022-10-17T05:25:45.449Z,14.30
2022-10-17T05:28:14.404Z,14.30
2022-10-17T05:30:44.910Z,14.30
2022-10-17T05:33:13.877Z,14.30
2022-10-17T05:35:46.206Z,14.30
2022-10-17T05:38:20.528Z,14.30
2022-10-17T05:40:50.524Z,14.40
2022-10-17T05:43:20.788Z,14.30
2022-10-17T05:45:50.022Z,14.40
2022-10-17T05:48:22.639Z,14.40
2022-10-17T05:51:00.693Z,14.40
2022-10-17T05:53:34.206Z,14.40
2022-10-17T05:56:09.656Z,14.40
2022-10-17T05:58:50.246Z,14.40
2022-10-17T06:01:34.535Z,14.40
2022-10-17T06:04:03.834Z,14.40
2022-10-17T06:06:33.743Z,14.40
2022-10-17T06:09:05.377Z,14.50
2022-10-17T06:11:38.395Z,14.50
2022-10-17T06:14:08.982Z,14.50
2022-10-17T06:16:39.823Z,14.50
2022-10-17T06:19:12.513Z,14.60
2022-10-17T06:21:42.522Z,14.50
2022-10-17T06:24:18.210Z,14.60
2022-10-17T06:26:47.643Z,14.60
2022-10-17T06:29:18.910Z,14.70
2022-10-17T06:31:50.957Z,14.60
2022-10-17T06:34:21.171Z,14.70
2022-10-17T06:36:50.619Z,14.70
2022-10-17T06:39:23.123Z,14.80
2022-10-17T06:41:59.880Z,14.80
2022-10-17T06:44:46.415Z,14.80
2022-10-17T06:47:34.412Z,14.90
2022-10-17T06:50:10.674Z,15.00
2022-10-17T06:52:46.163Z,15.00
2022-10-17T06:55:35.414Z,15.00
2022-10-17T06:58:27.049Z,15.10
2022-10-17T07:01:10.336Z,15.10
2022-10-17T07:03:41.366Z,15.20
2022-10-17T07:06:11.329Z,15.20
2022-10-17T07:08:44.442Z,15.20
2022-10-17T07:11:18.254Z,15.30
2022-10-17T07:13:48.031Z,15.30
2022-10-17T07:16:17.996Z,15.30
2022-10-17T07:18:51.349Z,15.40
2022-10-17T07:21:22.006Z,15.50
2022-10-17T07:23:51.041Z,15.60
2022-10-17T07:26:21.860Z,15.60
2022-10-17T07:28:56.090Z,15.70
2022-10-17T07:31:38.992Z,15.80
2022-10-17T07:34:08.186Z,15.80
2022-10-17T07:36:37.173Z,15.90
2022-10-17T07:39:07.935Z,15.80
2022-10-17T07:41:40.189Z,15.80
2022-10-17T07:44:09.766Z,16.00
2022-10-17T07:46:44.758Z,16.00
2022-10-17T07:49:14.092Z,16.10
2022-10-17T07:51:43.768Z,16.10
2022-10-17T07:54:13.943Z,16.20
2022-10-17T07:56:50.228Z,16.30
2022-10-17T07:59:19.869Z,16.40
2022-10-17T08:01:48.880Z,16.40
2022-10-17T08:04:18.060Z,16.40
2022-10-17T08:06:47.169Z,16.50
2022-10-17T08:09:16.355Z,16.60
2022-10-17T08:11:46.855Z,16.70
2022-10-17T08:14:16.830Z,16.70
2022-10-17T08:16:46.065Z,16.80
2022-10-17T08:19:15.145Z,16.90
2022-10-17T08:21:45.114Z,17.00
2022-10-17T08:24:14.170Z,17.00
2022-10-17T08:26:44.032Z,16.90
2022-10-17T08:29:18.074Z,17.00
2022-10-17T08:31:48.329Z,17.20
2022-10-17T08:34:19.145Z,17.20
2022-10-17T08:36:48.540Z,17.40
2022-10-17T08:39:17.668Z,17.40
2022-10-17T08:42:02.271Z,17.60
2022-10-17T08:44:47.349Z,17.70
2022-10-17T08:47:27.767Z,17.80
2022-10-17T08:50:01.735Z,17.90
2022-10-17T08:52:38.690Z,18.00
2022-10-17T08:55:16.637Z,18.00
2022-10-17T08:57:46.144Z,17.90
2022-10-17T09:00:21.139Z,18.10
2022-10-17T09:03:06.662Z,18.10
2022-10-17T09:05:45.096Z,18.20
2022-10-17T09:08:37.074Z,18.30
2022-10-17T09:11:20.851Z,18.40
2022-10-17T09:14:04.410Z,18.50
2022-10-17T09:16:55.808Z,18.50
2022-10-17T09:19:30.712Z,18.60
2022-10-17T09:22:04.479Z,18.60
2022-10-17T09:24:42.765Z,18.70
2022-10-17T09:27:24.536Z,18.80
2022-10-17T09:30:02.345Z,18.90
2022-10-17T09:32:33.803Z,19.00
2022-10-17T09:35:03.184Z,19.10
2022-10-17T09:37:34.202Z,19.10
2022-10-17T09:40:03.296Z,19.10
2022-10-17T09:42:32.680Z,19.20
2022-10-17T09:45:19.288Z,19.30
2022-10-17T09:48:00.946Z,19.30
2022-10-17T09:50:34.520Z,19.50
2022-10-17T09:53:13.810Z,19.50
2022-10-17T09:55:47.865Z,19.60
2022-10-17T09:58:17.464Z,19.70
2022-10-17T10:00:49.040Z,19.80
2022-10-17T10:03:22.780Z,19.90
2022-10-17T10:06:15.085Z,19.90
2022-10-17T10:08:52.682Z,20.00
2022-10-17T10:11:27.228Z,20.00
2022-10-17T10:13:56.296Z,20.20
2022-10-17T10:16:33.643Z,20.30
2022-10-17T10:19:21.581Z,20.40
2022-10-17T10:21:58.022Z,20.40
2022-10-17T10:24:30.854Z,20.50
2022-10-17T10:27:04.237Z,20.50
2022-10-17T10:29:36.357Z,20.60
2022-10-17T10:32:11.782Z,20.70
2022-10-17T10:34:48.768Z,20.80
2022-10-17T10:37:21.182Z,20.90
2022-10-17T10:39:52.853Z,21.00
2022-10-17T10:42:28.865Z,21.10
2022-10-17T10:45:03.953Z,21.10
2022-10-17T10:47:33.974Z,21.20
2022-10-17T10:50:30.469Z,21.30
2022-10-17T10:53:31.793Z,21.40
2022-10-17T10:56:11.972Z,21.70
2022-10-17T10:58:56.094Z,21.60
2022-10-17T11:01:32.856Z,21.70
2022-10-17T11:04:17.213Z,21.80
2022-10-17T11:06:48.696Z,21.90
2022-10-17T11:09:37.690Z,22.00
2022-10-17T11:12:13.240Z,22.20
2022-10-17T11:14:49.112Z,22.30
2022-10-17T11:17:30.514Z,22.50
2022-10-17T11:20:15.091Z,22.50
2022-10-17T11:22:49.792Z,22.70
2022-10-17T11:25:32.843Z,22.80
2022-10-17T11:28:05.160Z,22.90
2022-10-17T11:30:46.065Z,22.90
2022-10-17T11:33:27.466Z,23.00
2022-10-17T11:36:04.613Z,23.10
2022-10-17T11:38:45.881Z,23.10
2022-10-17T11:41:22.123Z,23.20
2022-10-17T11:43:57.865Z,23.30
2022-10-17T11:46:29.641Z,23.50
2022-10-17T11:49:20.853Z,23.60
2022-10-17T11:52:01.942Z,23.60
2022-10-17T11:54:39.707Z,23.70
2022-10-17T11:57:27.757Z,23.70
2022-10-17T12:00:13.059Z,23.80
2022-10-17T12:02:52.921Z,23.90
2022-10-17T12:05:30.004Z,24.10
2022-10-17T12:08:05.383Z,24.10
2022-10-17T12:10:47.318Z,24.10
2022-10-17T12:13:54.700Z,24.30
2022-10-17T12:16:46.638Z,24.30
2022-10-17T12:19:34.482Z,24.50
2022-10-17T12:22:23.850Z,24.50
2022-10-17T12:25:00.077Z,24.50
2022-10-17T12:27:46.147Z,24.60
2022-10-17T12:30:22.946Z,24.70
2022-10-17T12:33:22.299Z,24.80
2022-10-17T12:35:53.034Z,24.70
2022-10-17T12:38:28.585Z,24.70
2022-10-17T12:41:03.379Z,24.70
2022-10-17T12:43:57.941Z,24.70
2022-10-17T12:46:51.890Z,24.70
2022-10-17T12:49:45.789Z,24.70
2022-10-17T12:52:55.870Z,24.80
2022-10-17T12:55:26.755Z,24.80
2022-10-17T12:58:00.294Z,24.70
2022-10-17T13:00:37.443Z,24.60
2022-10-17T13:03:14.305Z,24.60
2022-10-17T13:05:48.755Z,24.60
2022-10-17T13:08:22.697Z,24.50
2022-10-17T13:10:53.877Z,24.30
2022-10-17T13:13:28.498Z,24.20
2022-10-17T13:15:58.991Z,24.00
2022-10-17T13:18:30.604Z,24.00
2022-10-17T13:21:02.737Z,24.00
2022-10-17T13:23:35.269Z,24.00
2022-10-17T13:26:16.605Z,23.90
2022-10-17T13:28:45.858Z,23.80
2022-10-17T13:31:32.049Z,23.90
2022-10-17T13:34:06.210Z,23.80
2022-10-17T13:36:36.632Z,23.90
2022-10-17T13:39:14.850Z,23.90
2022-10-17T13:41:46.571Z,23.90
2022-10-17T13:44:19.599Z,23.90
2022-10-17T13:46:50.611Z,23.90
2022-10-17T13:49:26.211Z,23.90
2022-10-17T13:51:59.308Z,23.90
2022-10-17T13:54:40.398Z,23.80
2022-10-17T13:57:21.588Z,23.80
2022-10-17T13:59:52.747Z,23.80
2022-10-17T14:02:26.759Z,23.80
2022-10-17T14:05:20.140Z,23.80
2022-10-17T14:10:45.214Z,23.90
2022-10-17T14:13:23.710Z,23.90
2022-10-17T14:15:55.069Z,23.90
2022-10-17T14:18:34.915Z,23.80
2022-10-17T14:24:18.380Z,23.70
2022-10-17T14:26:52.805Z,23.70
2022-10-17T14:29:26.185Z,23.60
2022-10-17T14:32:14.527Z,23.70
2022-10-17T14:34:46.571Z,23.70
2022-10-17T14:37:36.054Z,23.80
2022-10-17T14:40:09.173Z,23.70
2022-10-17T14:42:41.366Z,23.70
2022-10-17T14:45:23.455Z,23.70
2022-10-17T14:48:09.492Z,23.70
2022-10-17T14:50:42.243Z,23.60
2022-10-17T14:53:22.795Z,23.70
2022-10-17T14:55:58.911Z,23.70
2022-10-17T14:58:43.333Z,23.70
2022-10-17T15:01:13.375Z,23.70
2022-10-17T15:03:42.541Z,23.80
